createdAt,value
2018-12-04T00:00:36.800Z,10.40
2018-12-04T00:02:11.753Z,10.40
2018-12-04T00:03:46.652Z,10.40
2018-12-04T00:05:21.541Z,10.40
2018-12-04T00:06:56.383Z,10.40
2018-12-04T00:08:31.416Z,10.40
2018-12-04T00:10:07.837Z,10.40
2018-12-04T00:11:42.717Z,10.40
2018-12-04T00:13:17.635Z,10.40
2018-12-04T00:14:52.505Z,10.40
2018-12-04T00:16:27.538Z,10.40
2018-12-04T00:18:02.410Z,10.50
2018-12-04T00:19:37.318Z,10.50
2018-12-04T00:21:12.254Z,10.50
2018-12-04T00:22:48.149Z,10.50
2018-12-04T00:24:23.018Z,10.50
2018-12-04T00:25:57.998Z,10.50
2018-12-04T00:27:32.894Z,10.50
2018-12-04T00:29:07.844Z,10.50
2018-12-04T00:30:42.744Z,10.50
2018-12-04T00:32:17.635Z,10.50
2018-12-04T00:33:52.497Z,10.50
2018-12-04T00:35:27.364Z,10.50
2018-12-04T00:37:02.473Z,10.50
2018-12-04T00:38:37.363Z,10.50
2018-12-04T00:40:12.282Z,10.50
2018-12-04T00:41:47.221Z,10.50
2018-12-04T00:43:22.090Z,10.50
2018-12-04T00:44:57.009Z,10.50
2018-12-04T00:46:31.962Z,10.50
2018-12-04T00:48:07.970Z,10.50
2018-12-04T00:49:42.858Z,10.50
2018-12-04T00:51:17.755Z,10.50
2018-12-04T00:52:52.637Z,10.50
2018-12-04T00:54:27.515Z,10.50
2018-12-04T00:56:02.566Z,10.50
2018-12-04T00:57:37.522Z,10.50
2018-12-04T00:59:12.554Z,10.50
2018-12-04T01:00:47.467Z,10.50
2018-12-04T01:02:22.518Z,10.50
2018-12-04T01:03:57.512Z,10.50
2018-12-04T01:05:32.398Z,10.50
2018-12-04T01:07:07.349Z,10.50
2018-12-04T01:08:42.266Z,10.50
2018-12-04T01:10:17.187Z,10.50
2018-12-04T01:11:52.154Z,10.50
2018-12-04T01:13:26.977Z,10.50
2018-12-04T01:15:01.889Z,10.50
2018-12-04T01:16:37.494Z,10.50
2018-12-04T01:18:12.350Z,10.50
2018-12-04T01:19:47.275Z,10.50
2018-12-04T01:21:22.350Z,10.40
2018-12-04T01:22:57.361Z,10.40
2018-12-04T01:24:32.254Z,10.40
2018-12-04T01:26:07.141Z,10.40
2018-12-04T01:27:41.968Z,10.30
2018-12-04T01:29:16.961Z,10.30
2018-12-04T01:30:51.808Z,10.30
2018-12-04T01:32:26.688Z,10.30
2018-12-04T01:34:01.649Z,10.30
2018-12-04T01:35:36.497Z,10.30
2018-12-04T01:37:11.365Z,10.30
2018-12-04T01:38:46.329Z,10.30
2018-12-04T01:40:21.227Z,10.30
2018-12-04T01:41:56.156Z,10.30
2018-12-04T01:43:31.080Z,10.20
2018-12-04T01:45:06.873Z,10.20
2018-12-04T01:46:41.776Z,10.20
2018-12-04T01:48:16.713Z,10.20
2018-12-04T01:49:51.697Z,10.30
2018-12-04T01:51:26.749Z,10.30
2018-12-04T01:53:01.671Z,10.30
2018-12-04T01:54:36.651Z,10.30
2018-12-04T01:56:11.544Z,10.30
2018-12-04T01:57:46.440Z,10.30
2018-12-04T01:59:21.285Z,10.40
2018-12-04T02:00:56.239Z,10.40
2018-12-04T02:02:31.168Z,10.40
2018-12-04T02:04:06.265Z,10.40
2018-12-04T02:05:41.113Z,10.40
2018-12-04T02:07:16.049Z,10.40
2018-12-04T02:08:50.986Z,10.30
2018-12-04T02:10:25.915Z,10.30
2018-12-04T02:12:00.832Z,10.40
2018-12-04T02:13:35.680Z,10.30
2018-12-04T02:15:10.649Z,10.30
2018-12-04T02:16:46.728Z,10.30
2018-12-04T02:18:21.605Z,10.30
2018-12-04T02:19:56.489Z,10.30
2018-12-04T02:21:31.357Z,10.30
2018-12-04T02:23:06.293Z,10.30
2018-12-04T02:24:41.139Z,10.30
2018-12-04T02:26:16.085Z,10.30
2018-12-04T02:27:51.016Z,10.30
2018-12-04T02:29:25.878Z,10.30
2018-12-04T02:31:00.825Z,10.30
2018-12-04T02:32:35.702Z,10.30
2018-12-04T02:34:10.570Z,10.20
2018-12-04T02:35:45.505Z,10.20
2018-12-04T02:37:20.455Z,10.20
2018-12-04T02:38:55.305Z,10.10
2018-12-04T02:40:30.254Z,10.10
2018-12-04T02:42:08.137Z,10.10
2018-12-04T02:43:43.069Z,10.10
2018-12-04T02:45:17.949Z,10.20
2018-12-04T02:46:52.902Z,10.20
2018-12-04T02:48:27.773Z,10.20
2018-12-04T02:50:02.859Z,10.20
2018-12-04T02:51:37.793Z,10.20
2018-12-04T02:53:12.670Z,10.20
2018-12-04T02:54:47.523Z,10.20
2018-12-04T02:56:22.390Z,10.20
2018-12-04T02:57:57.257Z,10.10
2018-12-04T02:59:32.113Z,10.10
2018-12-04T03:01:06.997Z,10.00
2018-12-04T03:02:41.934Z,10.00
2018-12-04T03:04:16.856Z,10.00
2018-12-04T03:05:51.776Z,10.10
2018-12-04T03:07:26.716Z,10.10
2018-12-04T03:09:01.590Z,10.10
2018-12-04T03:10:38.453Z,10.10
2018-12-04T03:12:13.403Z,10.10
2018-12-04T03:13:48.355Z,10.20
2018-12-04T03:15:23.212Z,10.10
2018-12-04T03:16:58.294Z,10.10
2018-12-04T03:18:33.424Z,10.10
2018-12-04T03:20:08.351Z,10.10
2018-12-04T03:21:43.197Z,10.10
2018-12-04T03:23:18.166Z,10.10
2018-12-04T03:24:53.091Z,10.10
2018-12-04T03:26:27.979Z,10.10
2018-12-04T03:28:02.931Z,10.10
2018-12-04T03:29:39.783Z,10.10
2018-12-04T03:31:14.698Z,10.10
2018-12-04T03:32:49.627Z,10.10
2018-12-04T03:34:24.553Z,10.10
2018-12-04T03:35:59.454Z,10.00
2018-12-04T03:37:34.575Z,10.00
2018-12-04T03:39:09.420Z,9.90
2018-12-04T03:40:44.289Z,9.90
2018-12-04T03:42:19.130Z,9.80
2018-12-04T03:43:53.986Z,9.70
2018-12-04T03:45:28.962Z,9.60
2018-12-04T03:47:04.001Z,9.60
2018-12-04T03:48:38.972Z,9.50
2018-12-04T03:50:13.831Z,9.40
2018-12-04T03:51:48.784Z,9.40
2018-12-04T03:53:23.756Z,9.30
2018-12-04T03:54:58.770Z,9.30
2018-12-04T03:56:33.650Z,9.20
2018-12-04T03:58:08.604Z,9.20
2018-12-04T03:59:43.586Z,9.20
2018-12-04T04:01:18.561Z,9.10
2018-12-04T04:02:53.475Z,9.10
2018-12-04T04:04:28.417Z,9.10
2018-12-04T04:06:03.416Z,9.00
2018-12-04T04:07:38.285Z,9.00
2018-12-04T04:09:13.194Z,8.90
2018-12-04T04:10:48.109Z,9.00
2018-12-04T04:12:23.113Z,8.90
2018-12-04T04:13:58.021Z,8.90
2018-12-04T04:15:33.461Z,8.90
2018-12-04T04:17:08.376Z,8.80
2018-12-04T04:18:43.428Z,8.90
2018-12-04T04:20:18.360Z,8.90
2018-12-04T04:21:53.211Z,8.90
2018-12-04T04:23:28.153Z,8.90
2018-12-04T04:25:03.058Z,9.00
2018-12-04T04:26:38.185Z,8.90
2018-12-04T04:28:13.098Z,8.90
2018-12-04T04:29:47.974Z,8.90
2018-12-04T04:31:22.901Z,8.80
2018-12-04T04:32:58.152Z,8.80
2018-12-04T04:34:35.147Z,8.70
2018-12-04T04:36:10.021Z,8.70
2018-12-04T04:37:44.878Z,8.70
2018-12-04T04:39:19.809Z,8.70
2018-12-04T04:40:54.763Z,8.70
2018-12-04T04:42:29.644Z,8.60
2018-12-04T04:44:04.604Z,8.60
2018-12-04T04:45:39.543Z,8.70
2018-12-04T04:47:14.459Z,8.70
2018-12-04T04:48:49.344Z,8.70
2018-12-04T04:50:24.317Z,8.70
2018-12-04T04:51:59.200Z,8.70
2018-12-04T04:53:36.054Z,8.70
2018-12-04T04:55:11.046Z,8.80
2018-12-04T04:56:45.949Z,8.80
2018-12-04T04:58:20.894Z,8.80
2018-12-04T04:59:55.821Z,8.70
2018-12-04T05:01:30.689Z,8.70
2018-12-04T05:03:05.638Z,8.70
2018-12-04T05:04:40.510Z,8.70
2018-12-04T05:06:15.352Z,8.60
2018-12-04T05:07:50.227Z,8.60
2018-12-04T05:09:25.146Z,8.60
2018-12-04T05:11:00.065Z,8.60
2018-12-04T05:12:35.005Z,8.70
2018-12-04T05:14:09.953Z,8.70
2018-12-04T05:15:44.901Z,8.70
2018-12-04T05:17:19.786Z,8.70
2018-12-04T05:18:54.707Z,8.60
2018-12-04T05:20:29.544Z,8.70
2018-12-04T05:22:04.569Z,8.70
2018-12-04T05:23:39.505Z,8.70
2018-12-04T05:25:14.417Z,8.70
2018-12-04T05:26:49.292Z,8.60
2018-12-04T05:28:24.150Z,8.60
2018-12-04T05:29:59.043Z,8.60
2018-12-04T05:31:33.962Z,8.60
2018-12-04T05:33:08.918Z,8.60
2018-12-04T05:34:43.826Z,8.60
2018-12-04T05:36:18.755Z,8.60
2018-12-04T05:37:54.632Z,8.60
2018-12-04T05:39:29.541Z,8.60
2018-12-04T05:41:04.409Z,8.60
2018-12-04T05:42:39.294Z,8.50
2018-12-04T05:44:14.189Z,8.50
2018-12-04T05:45:49.132Z,8.50
2018-12-04T05:47:24.058Z,8.60
2018-12-04T05:48:58.950Z,8.60
2018-12-04T05:50:33.918Z,8.50
2018-12-04T05:52:08.876Z,8.50
2018-12-04T05:53:43.769Z,8.50
2018-12-04T05:55:18.704Z,8.50
2018-12-04T05:56:53.577Z,8.50
2018-12-04T05:58:28.770Z,8.50
2018-12-04T06:00:04.530Z,8.50
2018-12-04T06:01:39.542Z,8.50
2018-12-04T06:03:14.468Z,8.50
2018-12-04T06:04:49.477Z,8.50
2018-12-04T06:06:24.546Z,8.50
2018-12-04T06:07:59.408Z,8.50
2018-12-04T06:09:34.419Z,8.50
2018-12-04T06:11:09.505Z,8.40
2018-12-04T06:12:44.397Z,8.40
2018-12-04T06:14:19.268Z,8.40
2018-12-04T06:15:54.119Z,8.40
2018-12-04T06:17:29.013Z,8.40
2018-12-04T06:19:04.232Z,8.30
2018-12-04T06:20:39.092Z,8.30
2018-12-04T06:22:14.012Z,8.30
2018-12-04T06:23:49.000Z,8.30
2018-12-04T06:25:23.954Z,8.40
2018-12-04T06:26:58.801Z,8.40
2018-12-04T06:28:33.725Z,8.40
2018-12-04T06:30:08.835Z,8.40
2018-12-04T06:31:43.694Z,8.40
2018-12-04T06:33:18.613Z,8.40
2018-12-04T06:34:53.477Z,8.40
2018-12-04T06:36:28.438Z,8.30
2018-12-04T06:38:03.286Z,8.30
2018-12-04T06:39:38.912Z,8.30
2018-12-04T06:41:13.757Z,8.20
2018-12-04T06:42:48.733Z,8.20
2018-12-04T06:44:23.754Z,8.20
2018-12-04T06:45:58.675Z,8.20
2018-12-04T06:47:33.604Z,8.20
2018-12-04T06:49:08.456Z,8.20
2018-12-04T06:50:43.475Z,8.20
2018-12-04T06:52:18.341Z,8.20
2018-12-04T06:53:53.392Z,8.20
2018-12-04T06:55:28.313Z,8.20
2018-12-04T06:57:03.169Z,8.20
2018-12-04T06:58:38.069Z,8.20
2018-12-04T07:00:12.976Z,8.20
2018-12-04T07:01:47.850Z,8.20
2018-12-04T07:03:22.744Z,8.20
2018-12-04T07:04:57.628Z,8.20
2018-12-04T07:06:32.503Z,8.20
2018-12-04T07:08:07.401Z,8.20
2018-12-04T07:09:42.269Z,8.20
2018-12-04T07:11:17.189Z,8.10
2018-12-04T07:12:52.126Z,8.10
2018-12-04T07:14:27.002Z,8.10
2018-12-04T07:16:01.924Z,8.10
2018-12-04T07:17:37.040Z,8.10
2018-12-04T07:19:11.989Z,8.00
2018-12-04T07:20:46.920Z,8.00
2018-12-04T07:22:21.867Z,8.10
2018-12-04T07:23:57.777Z,8.20
2018-12-04T07:25:32.760Z,8.20
2018-12-04T07:27:07.610Z,8.30
2018-12-04T07:28:42.508Z,8.40
2018-12-04T07:30:17.410Z,8.40
2018-12-04T07:31:52.340Z,8.50
2018-12-04T07:33:27.236Z,8.60
2018-12-04T07:35:02.354Z,8.60
2018-12-04T07:36:37.437Z,8.60
2018-12-04T07:38:12.450Z,8.60
2018-12-04T07:39:47.401Z,8.70
2018-12-04T07:41:22.329Z,8.70
2018-12-04T07:42:57.369Z,8.80
2018-12-04T07:44:32.268Z,8.90
2018-12-04T07:46:07.144Z,8.90
2018-12-04T07:47:42.133Z,9.00
2018-12-04T07:49:17.013Z,9.10
2018-12-04T07:50:52.033Z,9.20
2018-12-04T07:52:26.918Z,9.30
2018-12-04T07:54:01.893Z,9.40
2018-12-04T07:55:36.834Z,9.50
2018-12-04T07:57:12.026Z,9.60
2018-12-04T07:58:46.866Z,9.60
2018-12-04T08:00:21.823Z,9.70
2018-12-04T08:01:56.751Z,9.70
2018-12-04T08:03:31.722Z,9.80
2018-12-04T08:05:06.849Z,9.80
2018-12-04T08:06:42.019Z,9.90
2018-12-04T08:08:16.869Z,9.90
2018-12-04T08:09:52.728Z,9.90
2018-12-04T08:11:27.630Z,9.90
2018-12-04T08:13:02.538Z,9.90
2018-12-04T08:14:37.388Z,9.90
2018-12-04T08:16:12.406Z,9.90
2018-12-04T08:17:47.309Z,10.00
2018-12-04T08:19:22.235Z,9.90
2018-12-04T08:20:57.169Z,9.90
2018-12-04T08:22:32.105Z,9.90
2018-12-04T08:24:06.969Z,9.90
2018-12-04T08:25:41.921Z,9.90
2018-12-04T08:27:24.275Z,9.90
2018-12-04T08:28:59.209Z,10.00
2018-12-04T08:30:34.119Z,10.00
2018-12-04T08:32:09.949Z,10.00
2018-12-04T08:33:45.068Z,10.00
2018-12-04T08:35:19.994Z,9.90
2018-12-04T08:36:54.899Z,10.00
2018-12-04T08:38:29.828Z,10.00
2018-12-04T08:40:05.354Z,10.00
2018-12-04T08:41:40.237Z,10.00
2018-12-04T08:43:15.109Z,10.10
2018-12-04T08:44:49.986Z,10.10
2018-12-04T08:46:24.882Z,10.10
2018-12-04T08:47:59.805Z,10.10
2018-12-04T08:49:34.673Z,10.10
2018-12-04T08:51:09.560Z,10.20
2018-12-04T08:52:44.420Z,10.20
2018-12-04T08:54:19.410Z,10.20
2018-12-04T08:55:54.293Z,10.20
2018-12-04T08:57:29.229Z,10.20
2018-12-04T08:59:04.256Z,10.30
2018-12-04T09:00:39.329Z,10.20
2018-12-04T09:02:14.340Z,10.20
2018-12-04T09:03:49.179Z,10.10
2018-12-04T09:05:24.058Z,10.00
2018-12-04T09:06:58.993Z,9.90
2018-12-04T09:08:33.977Z,9.90
2018-12-04T09:10:08.909Z,9.80
2018-12-04T09:11:43.850Z,9.90
2018-12-04T09:13:18.757Z,9.90
2018-12-04T09:14:53.702Z,10.00
2018-12-04T09:16:28.644Z,10.10
2018-12-04T09:18:03.591Z,10.30
2018-12-04T09:19:38.550Z,10.40
2018-12-04T09:21:13.618Z,10.50
2018-12-04T09:22:50.633Z,10.60
2018-12-04T09:24:30.720Z,10.80
2018-12-04T09:26:02.667Z,10.90
2018-12-04T09:27:37.713Z,11.10
2018-12-04T09:29:12.869Z,11.20
2018-12-04T09:30:47.949Z,11.10
2018-12-04T09:32:23.036Z,11.20
2018-12-04T09:33:58.100Z,11.30
2018-12-04T09:35:32.981Z,11.40
2018-12-04T09:37:07.977Z,11.50
2018-12-04T09:38:42.988Z,11.50
2018-12-04T09:40:17.903Z,11.50
2018-12-04T09:41:52.775Z,11.50
2018-12-04T09:43:27.902Z,11.30
2018-12-04T09:45:02.847Z,11.20
2018-12-04T09:46:38.834Z,11.20
2018-12-04T09:48:13.863Z,11.10
2018-12-04T09:49:48.865Z,11.00
2018-12-04T09:51:23.847Z,11.00
2018-12-04T09:52:58.841Z,10.90
2018-12-04T09:54:33.802Z,10.80
2018-12-04T09:56:08.869Z,10.60
2018-12-04T09:57:43.817Z,10.50
2018-12-04T09:59:18.819Z,10.30
2018-12-04T10:00:53.898Z,10.10
2018-12-04T10:02:28.749Z,10.00
2018-12-04T10:04:03.723Z,9.80
2018-12-04T10:05:38.663Z,9.60
2018-12-04T10:07:13.556Z,9.50
2018-12-04T10:08:48.435Z,9.20
2018-12-04T10:10:23.322Z,9.10
2018-12-04T10:11:59.451Z,8.90
2018-12-04T10:13:34.487Z,8.80
2018-12-04T10:15:09.651Z,8.70
2018-12-04T10:16:44.761Z,8.60
2018-12-04T10:18:19.743Z,8.60
2018-12-04T10:19:54.707Z,8.60
2018-12-04T10:21:29.629Z,8.70
2018-12-04T10:23:04.542Z,8.70
2018-12-04T10:24:39.487Z,8.70
2018-12-04T10:26:14.376Z,8.80
2018-12-04T10:27:49.241Z,8.80
2018-12-04T10:29:24.401Z,8.80
2018-12-04T10:31:04.562Z,8.90
2018-12-04T10:32:39.768Z,8.90
2018-12-04T10:34:14.634Z,9.00
2018-12-04T10:35:49.522Z,9.10
2018-12-04T10:37:24.408Z,9.20
2018-12-04T10:38:59.273Z,9.30
2018-12-04T10:40:34.110Z,9.30
2018-12-04T10:42:09.077Z,9.40
2018-12-04T10:43:43.965Z,9.40
2018-12-04T10:45:18.861Z,9.40
2018-12-04T10:46:53.850Z,9.50
2018-12-04T10:48:28.918Z,9.60
2018-12-04T10:50:05.290Z,9.80
2018-12-04T10:51:40.160Z,9.80
2018-12-04T10:53:15.081Z,9.80
2018-12-04T10:54:49.949Z,9.80
2018-12-04T10:56:24.839Z,9.90
2018-12-04T10:57:59.966Z,9.90
2018-12-04T10:59:34.789Z,10.00
2018-12-04T11:01:14.933Z,9.90
2018-12-04T11:02:50.375Z,9.90
2018-12-04T11:04:25.221Z,9.90
2018-12-04T11:06:01.262Z,9.90
2018-12-04T11:07:36.377Z,9.90
2018-12-04T11:09:11.256Z,9.80
2018-12-04T11:10:46.168Z,9.90
2018-12-04T11:12:21.140Z,9.90
2018-12-04T11:13:56.081Z,9.80
2018-12-04T11:15:31.105Z,9.90
2018-12-04T11:17:06.068Z,9.90
2018-12-04T11:18:42.445Z,9.90
2018-12-04T11:20:17.301Z,10.00
2018-12-04T11:21:52.202Z,10.00
2018-12-04T11:23:27.113Z,10.00
2018-12-04T11:25:02.065Z,10.00
2018-12-04T11:26:37.509Z,10.10
2018-12-04T11:28:12.357Z,10.10
2018-12-04T11:29:47.222Z,10.10
2018-12-04T11:31:22.098Z,10.10
2018-12-04T11:32:57.087Z,10.20
2018-12-04T11:34:31.941Z,10.20
2018-12-04T11:36:06.850Z,10.20
2018-12-04T11:37:41.805Z,10.20
2018-12-04T11:39:16.616Z,10.20
2018-12-04T11:40:51.503Z,10.30
2018-12-04T11:42:26.441Z,10.40
2018-12-04T11:44:01.548Z,10.40
2018-12-04T11:45:36.438Z,10.40
2018-12-04T11:47:11.309Z,10.30
2018-12-04T11:48:46.236Z,10.20
2018-12-04T11:50:21.308Z,10.10
2018-12-04T11:51:56.201Z,10.10
2018-12-04T11:53:31.163Z,10.00
2018-12-04T11:55:06.245Z,9.80
2018-12-04T11:56:41.209Z,9.70
2018-12-04T11:58:16.331Z,9.70
2018-12-04T11:59:51.438Z,9.60
2018-12-04T12:01:28.555Z,9.70
2018-12-04T12:03:03.638Z,9.70
2018-12-04T12:04:38.580Z,9.70
2018-12-04T12:06:15.653Z,9.90
2018-12-04T12:07:51.854Z,9.90
2018-12-04T12:09:26.710Z,10.10
2018-12-04T12:11:01.709Z,10.30
2018-12-04T12:12:36.677Z,10.50
2018-12-04T12:14:11.655Z,10.60
2018-12-04T12:15:46.538Z,10.80
2018-12-04T12:17:21.594Z,10.80
2018-12-04T12:18:56.621Z,10.80
2018-12-04T12:20:31.531Z,10.80
2018-12-04T12:22:06.414Z,10.80
2018-12-04T12:23:41.317Z,10.70
2018-12-04T12:25:16.394Z,10.70
2018-12-04T12:26:51.451Z,10.60
2018-12-04T12:28:26.342Z,10.50
2018-12-04T12:30:01.332Z,10.40
2018-12-04T12:31:36.280Z,10.30
2018-12-04T12:33:11.256Z,10.20
2018-12-04T12:34:46.155Z,10.20
2018-12-04T12:36:21.034Z,10.10
2018-12-04T12:37:56.049Z,10.00
2018-12-04T12:39:30.917Z,9.90
2018-12-04T12:41:05.837Z,9.90
2018-12-04T12:42:40.806Z,9.90
2018-12-04T12:44:15.658Z,9.90
2018-12-04T12:45:50.506Z,9.90
2018-12-04T12:47:25.665Z,9.90
2018-12-04T12:49:00.612Z,9.90
2018-12-04T12:50:35.811Z,9.90
2018-12-04T12:52:10.708Z,10.00
2018-12-04T12:53:46.523Z,10.00
2018-12-04T12:55:21.390Z,10.00
2018-12-04T12:56:56.257Z,10.00
2018-12-04T12:58:31.311Z,10.10
2018-12-04T13:00:08.345Z,10.20
2018-12-04T13:01:43.780Z,10.20
2018-12-04T13:03:19.037Z,10.30
2018-12-04T13:04:53.942Z,10.30
2018-12-04T13:06:28.793Z,10.30
2018-12-04T13:08:03.873Z,10.30
2018-12-04T13:09:38.746Z,10.30
2018-12-04T13:11:13.659Z,10.20
2018-12-04T13:12:48.527Z,10.20
2018-12-04T13:14:23.481Z,10.10
2018-12-04T13:15:58.706Z,10.10
2018-12-04T13:17:33.685Z,10.00
2018-12-04T13:19:08.676Z,9.90
2018-12-04T13:20:43.607Z,9.90
2018-12-04T13:22:18.533Z,9.80
2018-12-04T13:23:53.458Z,9.80
2018-12-04T13:25:28.393Z,9.70
2018-12-04T13:27:03.537Z,9.70
2018-12-04T13:28:38.432Z,9.70
2018-12-04T13:30:13.499Z,9.70
2018-12-04T13:31:48.543Z,9.60
2018-12-04T13:33:23.480Z,9.60
2018-12-04T13:34:58.506Z,9.60
2018-12-04T13:36:33.336Z,9.50
2018-12-04T13:38:08.240Z,9.50
2018-12-04T13:39:43.114Z,9.40
2018-12-04T13:41:17.977Z,9.40
2018-12-04T13:42:52.902Z,9.40
2018-12-04T13:44:27.928Z,9.30
2018-12-04T13:46:02.980Z,9.30
2018-12-04T13:47:37.926Z,9.30
2018-12-04T13:49:12.881Z,9.30
2018-12-04T13:50:47.831Z,9.30
2018-12-04T13:52:22.780Z,9.30
2018-12-04T13:53:57.768Z,9.30
2018-12-04T13:55:32.801Z,9.30
2018-12-04T13:57:07.689Z,9.30
2018-12-04T13:58:42.584Z,9.30
2018-12-04T14:00:17.480Z,9.30
2018-12-04T14:01:52.341Z,9.20
2018-12-04T14:03:27.362Z,9.30
2018-12-04T14:05:02.535Z,9.20
2018-12-04T14:06:40.223Z,9.20
2018-12-04T14:08:15.293Z,9.20
2018-12-04T14:09:50.781Z,9.20
2018-12-04T14:11:25.660Z,9.10
2018-12-04T14:13:00.603Z,9.10
2018-12-04T14:14:35.618Z,9.10
2018-12-04T14:16:10.621Z,9.10
2018-12-04T14:17:45.668Z,9.00
2018-12-04T14:19:20.692Z,9.10
2018-12-04T14:20:55.664Z,9.00
2018-12-04T14:22:30.590Z,9.00
2018-12-04T14:24:05.826Z,9.00
2018-12-04T14:25:40.858Z,8.90
2018-12-04T14:27:15.817Z,8.80
2018-12-04T14:28:50.716Z,8.80
2018-12-04T14:30:25.798Z,8.70
2018-12-04T14:32:00.741Z,8.60
2018-12-04T14:33:35.736Z,8.50
2018-12-04T14:35:10.774Z,8.50
2018-12-04T14:36:45.743Z,8.40
2018-12-04T14:38:24.517Z,8.30
2018-12-04T14:39:57.566Z,8.30
2018-12-04T14:41:32.566Z,8.20
2018-12-04T14:43:07.470Z,8.10
2018-12-04T14:44:42.477Z,8.10
2018-12-04T14:46:17.447Z,8.00
2018-12-04T14:47:52.415Z,8.00
2018-12-04T14:49:27.611Z,7.90
2018-12-04T14:51:02.537Z,7.90
2018-12-04T14:52:37.590Z,7.90
2018-12-04T14:54:12.477Z,7.90
2018-12-04T14:55:47.422Z,7.90
2018-12-04T14:57:22.330Z,7.80
2018-12-04T14:58:57.242Z,7.80
2018-12-04T15:00:32.241Z,7.80
2018-12-04T15:02:07.398Z,7.80
2018-12-04T15:05:19.353Z,7.80
2018-12-04T15:06:54.569Z,7.80
2018-12-04T15:08:29.567Z,7.80
2018-12-04T15:10:06.627Z,7.70
2018-12-04T15:11:41.612Z,7.70
2018-12-04T15:13:16.764Z,7.70
2018-12-04T15:14:51.803Z,7.70
2018-12-04T15:16:26.750Z,7.60
2018-12-04T15:18:01.943Z,7.60
2018-12-04T15:19:36.902Z,7.60
2018-12-04T15:21:11.847Z,7.50
2018-12-04T15:22:46.774Z,7.40
2018-12-04T15:24:21.762Z,7.40
2018-12-04T15:25:56.682Z,7.30
2018-12-04T15:27:31.720Z,7.20
2018-12-04T15:29:06.713Z,7.20
2018-12-04T15:30:41.807Z,7.10
2018-12-04T15:32:16.752Z,7.10
2018-12-04T15:33:51.875Z,7.00
2018-12-04T15:35:26.854Z,7.00
2018-12-04T15:37:04.820Z,7.00
2018-12-04T15:38:39.817Z,6.90
2018-12-04T15:40:14.860Z,6.90
2018-12-04T15:41:49.757Z,6.90
2018-12-04T15:43:24.654Z,6.90
2018-12-04T15:44:59.650Z,6.90
2018-12-04T15:46:34.637Z,6.80
2018-12-04T15:48:09.761Z,6.80
2018-12-04T15:49:44.687Z,6.80
2018-12-04T15:51:19.615Z,6.80
2018-12-04T15:52:54.544Z,6.70
2018-12-04T15:54:29.579Z,6.70
2018-12-04T15:56:04.639Z,6.70
2018-12-04T15:57:39.491Z,6.70
2018-12-04T15:59:14.404Z,6.70
2018-12-04T16:00:49.271Z,6.60
2018-12-04T16:02:24.688Z,6.60
2018-12-04T16:03:59.599Z,6.60
2018-12-04T16:05:34.605Z,6.60
2018-12-04T16:07:09.626Z,6.50
2018-12-04T16:08:44.552Z,6.60
2018-12-04T16:10:19.447Z,6.50
2018-12-04T16:11:54.394Z,6.50
2018-12-04T16:13:29.261Z,6.50
2018-12-04T16:15:04.460Z,6.50
2018-12-04T16:16:39.421Z,6.60
2018-12-04T16:18:14.657Z,6.60
2018-12-04T16:19:49.586Z,6.60
2018-12-04T16:21:24.496Z,6.60
2018-12-04T16:22:59.382Z,6.60
2018-12-04T16:24:34.538Z,6.60
2018-12-04T16:26:09.430Z,6.70
2018-12-04T16:27:44.313Z,6.70
2018-12-04T16:29:19.185Z,6.70
2018-12-04T16:30:54.135Z,6.70
2018-12-04T16:32:29.002Z,6.70
2018-12-04T16:34:04.171Z,6.70
2018-12-04T16:35:39.112Z,6.70
2018-12-04T16:37:13.973Z,6.70
2018-12-04T16:38:48.946Z,6.70
2018-12-04T16:40:24.056Z,6.80
2018-12-04T16:41:59.009Z,6.80
2018-12-04T16:43:34.093Z,6.80
2018-12-04T16:45:09.467Z,6.80
2018-12-04T16:46:44.498Z,6.80
2018-12-04T16:48:19.531Z,6.80
2018-12-04T16:49:54.486Z,6.90
2018-12-04T16:51:29.421Z,6.90
2018-12-04T16:53:04.345Z,6.90
2018-12-04T16:54:39.299Z,6.90
2018-12-04T16:56:14.301Z,6.90
2018-12-04T16:57:49.219Z,6.90
2018-12-04T16:59:24.471Z,6.90
2018-12-04T17:00:59.522Z,6.90
2018-12-04T17:02:34.780Z,6.90
2018-12-04T17:04:09.795Z,6.90
2018-12-04T17:05:44.669Z,6.90
2018-12-04T17:07:19.621Z,6.90
2018-12-04T17:08:54.489Z,6.90
2018-12-04T17:10:29.513Z,6.90
2018-12-04T17:12:04.581Z,6.90
2018-12-04T17:13:39.454Z,6.90
2018-12-04T17:15:14.399Z,6.90
2018-12-04T17:16:49.220Z,6.90
2018-12-04T17:18:24.139Z,6.90
2018-12-04T17:19:59.058Z,6.80
2018-12-04T17:21:34.090Z,6.80
2018-12-04T17:23:09.183Z,6.80
2018-12-04T17:24:44.215Z,6.80
2018-12-04T17:26:19.263Z,6.70
2018-12-04T17:27:54.202Z,6.70
2018-12-04T17:29:29.088Z,6.70
2018-12-04T17:31:04.046Z,6.70
2018-12-04T17:32:38.973Z,6.70
2018-12-04T17:34:14.974Z,6.70
2018-12-04T17:35:49.984Z,6.70
2018-12-04T17:37:25.054Z,6.70
2018-12-04T17:38:59.926Z,6.70
2018-12-04T17:40:34.903Z,6.70
2018-12-04T17:42:09.830Z,6.70
2018-12-04T17:43:44.889Z,6.70
2018-12-04T17:45:19.985Z,6.70
2018-12-04T17:46:55.046Z,6.70
2018-12-04T17:48:29.967Z,6.70
2018-12-04T17:50:06.040Z,6.60
2018-12-04T17:51:41.018Z,6.60
2018-12-04T17:53:15.976Z,6.60
2018-12-04T17:54:51.001Z,6.50
2018-12-04T17:56:26.038Z,6.50
2018-12-04T17:58:00.980Z,6.40
2018-12-04T17:59:36.001Z,6.40
2018-12-04T18:01:10.889Z,6.30
2018-12-04T18:02:47.756Z,6.30
2018-12-04T18:04:22.822Z,6.30
2018-12-04T18:05:59.745Z,6.30
2018-12-04T18:07:34.808Z,6.30
2018-12-04T18:09:09.793Z,6.30
2018-12-04T18:10:46.774Z,6.30
2018-12-04T18:12:21.740Z,6.30
2018-12-04T18:13:58.780Z,6.20
2018-12-04T18:15:33.729Z,6.20
2018-12-04T18:17:08.601Z,6.20
2018-12-04T18:18:43.456Z,6.20
2018-12-04T18:20:18.497Z,6.10
2018-12-04T18:21:54.417Z,6.10
2018-12-04T18:23:29.588Z,6.10
2018-12-04T18:25:04.766Z,6.10
2018-12-04T18:26:39.856Z,6.10
2018-12-04T18:28:14.830Z,6.00
2018-12-04T18:29:49.768Z,6.00
2018-12-04T18:31:24.690Z,6.00
2018-12-04T18:32:59.713Z,6.00
2018-12-04T18:34:34.976Z,6.00
2018-12-04T18:36:10.121Z,6.00
2018-12-04T18:37:45.072Z,6.00
2018-12-04T18:39:20.037Z,5.90
2018-12-04T18:40:56.751Z,5.90
2018-12-04T18:42:31.949Z,5.90
2018-12-04T18:44:07.081Z,5.90
2018-12-04T18:45:42.027Z,5.90
2018-12-04T18:47:17.158Z,5.90
2018-12-04T18:48:52.048Z,6.00
2018-12-04T18:50:26.964Z,6.00
2018-12-04T18:52:03.474Z,6.00
2018-12-04T18:53:38.481Z,6.00
2018-12-04T18:55:19.257Z,5.90
2018-12-04T18:56:54.172Z,6.00
2018-12-04T18:58:29.395Z,6.00
2018-12-04T19:00:06.380Z,6.00
2018-12-04T19:01:41.418Z,6.00
2018-12-04T19:03:17.080Z,6.00
2018-12-04T19:04:53.106Z,6.00
2018-12-04T19:06:28.037Z,6.00
2018-12-04T19:08:02.956Z,6.10
2018-12-04T19:09:38.152Z,6.10
2018-12-04T19:11:13.241Z,6.10
2018-12-04T19:12:48.221Z,6.20
2018-12-04T19:14:23.266Z,6.10
2018-12-04T19:15:58.286Z,6.20
2018-12-04T19:17:33.341Z,6.20
2018-12-04T19:19:08.482Z,6.20
2018-12-04T19:20:43.440Z,6.20
2018-12-04T19:22:18.420Z,6.20
2018-12-04T19:23:53.289Z,6.20
2018-12-04T19:25:28.353Z,6.10
2018-12-04T19:27:03.333Z,6.10
2018-12-04T19:28:38.592Z,6.10
2018-12-04T19:30:14.456Z,6.10
2018-12-04T19:31:50.128Z,6.00
2018-12-04T19:33:25.022Z,6.00
2018-12-04T19:34:59.934Z,6.00
2018-12-04T19:36:34.833Z,6.00
2018-12-04T19:38:09.781Z,5.90
2018-12-04T19:39:44.772Z,5.90
2018-12-04T19:41:19.767Z,5.90
2018-12-04T19:42:54.651Z,5.90
2018-12-04T19:44:29.543Z,5.90
2018-12-04T19:46:04.434Z,5.90
2018-12-04T19:47:39.337Z,5.90
2018-12-04T19:49:15.342Z,5.90
2018-12-04T19:50:50.317Z,5.90
2018-12-04T19:52:25.364Z,5.90
2018-12-04T19:54:00.576Z,5.90
2018-12-04T19:55:35.483Z,5.90
2018-12-04T19:57:10.898Z,5.90
2018-12-04T19:58:46.154Z,5.90
2018-12-04T20:00:21.342Z,5.90
2018-12-04T20:01:56.510Z,5.90
2018-12-04T20:03:32.490Z,6.00
2018-12-04T20:05:08.387Z,6.00
2018-12-04T20:06:43.445Z,6.00
2018-12-04T20:08:19.481Z,6.00
2018-12-04T20:09:54.740Z,6.00
2018-12-04T20:11:29.722Z,6.00
2018-12-04T20:13:04.748Z,6.00
2018-12-04T20:14:39.790Z,6.00
2018-12-04T20:16:14.695Z,6.00
2018-12-04T20:17:49.831Z,6.00
2018-12-04T20:19:24.854Z,6.00
2018-12-04T20:20:59.723Z,6.00
2018-12-04T20:22:34.827Z,6.00
2018-12-04T20:24:09.985Z,6.00
2018-12-04T20:25:44.892Z,6.00
2018-12-04T20:27:19.844Z,6.00
2018-12-04T20:28:54.820Z,6.00
2018-12-04T20:30:29.835Z,5.90
2018-12-04T20:32:05.090Z,5.90
2018-12-04T20:33:40.055Z,5.90
2018-12-04T20:35:15.114Z,5.90
2018-12-04T20:36:50.171Z,5.90
2018-12-04T20:38:25.038Z,5.90
2018-12-04T20:40:01.447Z,5.90
2018-12-04T20:41:36.704Z,5.90
2018-12-04T20:43:11.639Z,5.90
2018-12-04T20:44:46.547Z,5.90
2018-12-04T20:46:21.458Z,5.90
2018-12-04T20:47:56.473Z,5.90
2018-12-04T20:49:31.390Z,5.90
2018-12-04T20:51:06.336Z,5.90
2018-12-04T20:52:41.385Z,5.90
2018-12-04T20:54:16.265Z,5.90